Time;durP1;ratioP1;P1;durP2;ratioP2;P2;SDS_P1;SDS_P2;PMS_P1;PMS_P2;Temp;Humidity;BMP_temperature;BMP_pressure;BME280_temperature;BME280_humidity;BME280_pressure;Samples;Min_cycle;Max_cycle;Signal;HPM_P1;HPM_P2
2023/09/24 00:01:34;;;;;;;13.77;3.50;;;;;;;15.50;86.69;101214.91;5021999;28;20267;-60
2023/09/24 00:04:06;;;;;;;17.30;3.57;;;;;;;15.64;86.45;101205.84;5020818;28;20287;-64
2023/09/24 00:06:36;;;;;;;16.80;3.07;;;;;;;15.77;85.92;101207.31;5024222;28;20337;-62
2023/09/24 00:09:07;;;;;;;10.77;3.43;;;;;;;15.92;85.91;101206.09;5013520;28;20362;-62
2023/09/24 00:11:39;;;;;;;12.57;2.80;;;;;;;16.07;85.13;101216.28;5024448;28;20747;-62
2023/09/24 00:14:10;;;;;;;10.17;2.90;;;;;;;16.13;83.94;101210.00;5012876;28;20298;-62
2023/09/24 00:16:41;;;;;;;18.13;3.33;;;;;;;16.15;83.45;101209.06;5012676;28;20295;-61
2023/09/24 00:19:12;;;;;;;11.53;3.40;;;;;;;16.28;83.65;101214.91;4993618;28;20754;-59
2023/09/24 00:21:43;;;;;;;18.30;3.10;;;;;;;16.41;82.91;101214.59;5004070;28;20355;-62
2023/09/24 00:24:17;;;;;;;10.53;3.23;;;;;;;16.37;81.42;101209.41;4993913;28;20288;-60
2023/09/24 00:26:49;;;;;;;17.07;3.43;;;;;;;16.51;81.69;101210.81;5004553;28;20303;-61
2023/09/24 00:29:21;;;;;;;16.40;3.53;;;;;;;16.66;80.72;101199.84;4993987;28;20627;-64
2023/09/24 00:31:51;;;;;;;15.87;3.07;;;;;;;16.84;80.81;101197.66;5004240;28;20287;-62
2023/09/24 00:34:22;;;;;;;17.80;4.70;;;;;;;16.93;79.64;101202.69;4993698;28;20280;-62
2023/09/24 00:36:53;;;;;;;9.43;3.90;;;;;;;17.03;79.54;101209.44;5004043;28;20763;-62
2023/09/24 00:39:24;;;;;;;25.57;6.07;;;;;;;17.22;78.98;101215.94;4995430;28;20299;-62
2023/09/24 00:41:59;;;;;;;18.10;3.90;;;;;;;17.40;78.84;101208.41;5017347;28;20525;-62
2023/09/24 00:44:30;;;;;;;10.67;3.43;;;;;;;17.55;77.71;101213.22;5009364;28;20280;-59
2023/09/24 00:47:01;;;;;;;18.27;4.70;;;;;;;17.69;77.99;101212.78;5020343;28;20275;-61
2023/09/24 00:49:32;;;;;;;17.73;4.43;;;;;;;17.83;75.22;101205.31;5009796;28;20620;-59
2023/09/24 00:52:03;;;;;;;12.40;2.93;;;;;;;17.86;72.66;101212.28;5024002;28;20382;-62
2023/09/24 00:54:33;;;;;;;15.27;3.57;;;;;;;17.85;70.80;101200.00;5013060;28;20287;-58
2023/09/24 00:57:06;;;;;;;11.93;3.70;;;;;;;17.98;70.23;101200.47;5023843;28;20378;-62
2023/09/24 00:59:38;;;;;;;12.20;3.60;;;;;;;18.09;69.35;101199.19;5014055;28;20936;-61
2023/09/24 01:02:09;;;;;;;15.40;3.30;;;;;;;18.22;70.25;101182.91;5012685;28;20291;-61
2023/09/24 01:04:39;;;;;;;15.23;3.60;;;;;;;18.34;70.33;101193.09;5018921;28;20777;-60
2023/09/24 01:07:10;;;;;;;16.03;2.93;;;;;;;18.38;68.08;101194.72;4998497;28;20386;-61
2023/09/24 01:09:42;;;;;;;11.90;2.57;;;;;;;18.47;68.09;101189.13;5014581;28;20299;-64
2023/09/24 01:12:25;;;;;;;13.80;3.00;;;;;;;18.63;66.58;101183.28;5004541;28;20265;-60
2023/09/24 01:14:57;;;;;;;10.00;2.27;;;;;;;18.66;64.41;101193.75;5002661;28;20292;-60
2023/09/24 01:17:28;;;;;;;12.37;2.87;;;;;;;18.68;64.89;101191.94;5012262;28;20315;-63
2023/09/24 01:19:58;;;;;;;10.87;2.50;;;;;;;18.82;65.28;101189.69;5013417;28;20358;-64
2023/09/24 01:22:30;;;;;;;9.33;2.10;;;;;;;18.93;65.08;101192.81;5003624;28;20298;-62
2023/09/24 01:25:02;;;;;;;13.17;1.97;;;;;;;18.91;63.88;101188.50;5013213;28;20284;-63
2023/09/24 01:27:35;;;;;;;10.67;3.27;;;;;;;18.99;63.81;101188.22;5026234;28;20368;-62
2023/09/24 01:30:07;;;;;;;10.57;2.97;;;;;;;19.06;62.97;101184.41;5004238;28;20284;-60
2023/09/24 01:32:37;;;;;;;5.87;2.13;;;;;;;19.15;62.37;101186.72;5015522;28;20275;-62
2023/09/24 01:35:49;;;;;;;10.87;3.10;;;;;;;19.19;62.62;101188.31;5012407;28;20318;-62
2023/09/24 01:38:34;;;;;;;15.47;2.30;;;;;;;19.14;62.91;101179.69;5012487;28;20299;-64
2023/09/24 01:41:07;;;;;;;7.63;1.53;;;;;;;19.19;62.08;101183.03;5022357;28;20315;-62
2023/09/24 01:43:39;;;;;;;9.93;2.00;;;;;;;19.27;62.10;101186.28;5023000;28;20282;-64
2023/09/24 01:46:09;;;;;;;8.57;1.70;;;;;;;19.37;61.06;101185.00;5012661;28;20280;-62
2023/09/24 01:48:40;;;;;;;12.13;2.00;;;;;;;19.37;61.33;101177.03;5023364;28;20268;-61
2023/09/24 01:51:11;;;;;;;10.23;2.20;;;;;;;19.47;60.54;101171.38;5013202;28;20438;-62
2023/09/24 01:53:43;;;;;;;7.80;2.57;;;;;;;19.50;61.22;101176.56;5023020;28;20292;-64
2023/09/24 01:56:17;;;;;;;9.33;2.10;;;;;;;19.57;59.41;101178.06;5012813;28;20296;-64
2023/09/24 01:58:49;;;;;;;7.17;2.20;;;;;;;19.48;60.44;101151.91;5022765;28;20287;-63
2023/09/24 02:01:22;;;;;;;8.93;2.10;;;;;;;19.80;60.30;101169.22;5012961;28;20271;-60
2023/09/24 02:03:59;;;;;;;9.80;2.07;;;;;;;19.78;59.05;101161.31;5033191;28;20284;-61
2023/09/24 02:06:30;;;;;;;7.93;2.20;;;;;;;19.81;58.71;101161.19;5022489;28;20358;-61
2023/09/24 02:09:02;;;;;;;6.13;1.67;;;;;;;19.81;59.19;101161.19;5032934;28;20284;-63
2023/09/24 02:11:34;;;;;;;10.33;2.20;;;;;;;19.91;59.34;101155.53;5023059;28;20745;-63
2023/09/24 02:14:05;;;;;;;5.47;2.83;;;;;;;19.97;56.55;101168.53;5035633;28;20291;-64
2023/09/24 02:16:38;;;;;;;8.13;1.67;;;;;;;20.06;57.35;101165.50;5022715;28;20615;-62
2023/09/24 02:19:09;;;;;;;9.90;2.77;;;;;;;20.14;58.28;101166.03;5023005;28;20271;-62
2023/09/24 02:21:40;;;;;;;5.63;2.33;;;;;;;20.07;56.84;101156.63;5032994;28;20348;-62
2023/09/24 02:24:13;;;;;;;10.10;1.63;;;;;;;20.17;57.82;101173.88;5022711;28;20283;-61
2023/09/24 02:26:44;;;;;;;3.80;1.77;;;;;;;20.14;57.23;101168.69;5034022;28;20327;-62
2023/09/24 02:29:18;;;;;;;4.77;1.53;;;;;;;20.09;56.45;101164.50;5023078;28;20374;-61
2023/09/24 02:31:52;;;;;;;14.97;4.63;;;;;;;20.18;58.56;101161.47;5032345;28;20386;-63
2023/09/24 02:34:22;;;;;;;6.63;1.60;;;;;;;20.29;58.99;101155.69;5021038;28;20733;-63
2023/09/24 02:36:54;;;;;;;10.30;1.90;;;;;;;20.36;56.99;101167.78;5033364;28;20381;-63
2023/09/24 02:39:26;;;;;;;3.90;2.10;;;;;;;20.40;57.10;101158.78;5025121;28;20297;-62
2023/09/24 02:41:57;;;;;;;8.03;2.70;;;;;;;20.44;56.62;101160.34;5032901;28;20275;-64
2023/09/24 02:44:28;;;;;;;4.83;1.70;;;;;;;20.44;57.69;101163.00;5023938;28;20278;-61
2023/09/24 02:46:58;;;;;;;4.77;2.03;;;;;;;20.41;56.32;101156.03;5039905;28;20353;-65
2023/09/24 02:49:29;;;;;;;4.60;1.67;;;;;;;20.40;55.78;101158.78;5048412;28;20378;-64
2023/09/24 02:51:59;;;;;;;5.67;1.60;;;;;;;20.48;56.86;101146.88;5059323;28;20370;-64
2023/09/24 02:54:31;;;;;;;5.37;2.00;;;;;;;20.61;57.58;101146.38;5043546;28;20271;-65
2023/09/24 02:57:03;;;;;;;5.80;1.70;;;;;;;20.57;57.28;101145.66;5040679;28;20626;-64
2023/09/24 02:59:34;;;;;;;4.97;1.40;;;;;;;20.51;56.46;101132.59;5022647;28;20315;-61
2023/09/24 03:02:05;;;;;;;4.40;1.73;;;;;;;20.52;56.18;101144.06;5044944;28;20275;-64
2023/09/24 03:04:35;;;;;;;7.83;1.60;;;;;;;20.49;57.05;101142.41;5045319;28;20321;-63
2023/09/24 03:07:10;;;;;;;8.07;1.60;;;;;;;20.55;55.88;101144.00;5061610;28;20313;-61
2023/09/24 03:09:42;;;;;;;5.43;1.60;;;;;;;20.47;55.65;101131.03;5053400;28;20271;-65
2023/09/24 03:12:13;;;;;;;4.83;2.13;;;;;;;20.54;55.98;101145.75;5043390;28;20282;-63
2023/09/24 03:14:43;;;;;;;7.00;1.40;;;;;;;20.61;55.45;101141.06;5074327;28;20361;-64
2023/09/24 03:17:14;;;;;;;10.77;1.90;;;;;;;20.70;55.91;101145.13;5057022;28;20329;-64
2023/09/24 03:19:45;;;;;;;4.90;1.57;;;;;;;20.81;55.83;101142.81;5073407;28;20278;-65
2023/09/24 03:22:15;;;;;;;4.50;1.67;;;;;;;20.88;55.15;101144.28;5060991;28;20305;-65
2023/09/24 03:24:47;;;;;;;8.20;2.00;;;;;;;20.87;54.78;101142.56;5094056;28;20289;-65
2023/09/24 03:27:17;;;;;;;6.57;2.00;;;;;;;20.87;53.76;101131.94;5094427;28;20298;-64
2023/09/24 03:29:48;;;;;;;6.53;1.80;;;;;;;20.90;55.04;101134.44;5093551;28;20291;-63
2023/09/24 03:32:18;;;;;;;6.80;2.43;;;;;;;20.97;55.05;101135.91;5094599;28;20600;-64
2023/09/24 03:34:49;;;;;;;8.57;2.50;;;;;;;20.97;54.11;101130.59;5093869;28;20347;-64
2023/09/24 03:37:20;;;;;;;7.93;1.90;;;;;;;20.99;54.04;101136.69;5094488;28;20270;-65
2023/09/24 03:39:52;;;;;;;4.23;1.50;;;;;;;20.98;53.84;101134.94;5066138;28;20340;-60
2023/09/24 03:42:23;;;;;;;3.83;1.73;;;;;;;21.00;54.65;101132.25;5040093;28;20287;-64
2023/09/24 03:44:53;;;;;;;6.50;1.83;;;;;;;21.09;55.36;101139.75;5044545;28;20367;-64
2023/09/24 03:47:24;;;;;;;6.70;1.67;;;;;;;21.15;53.46;101136.84;5031266;28;20657;-64
2023/09/24 03:49:54;;;;;;;5.00;1.63;;;;;;;21.07;52.68;101123.91;5043997;28;20610;-64
2023/09/24 03:52:26;;;;;;;3.43;2.10;;;;;;;21.17;54.52;101124.34;5073303;28;20287;-64
2023/09/24 03:54:59;;;;;;;5.60;1.63;;;;;;;21.20;53.94;101128.66;5060834;28;20779;-63
2023/09/24 03:57:30;;;;;;;4.50;1.30;;;;;;;21.27;53.17;101124.78;5031429;28;20298;-65
2023/09/24 04:00:06;;;;;;;5.13;1.27;;;;;;;21.20;48.49;101123.34;5051283;28;20371;-64
2023/09/24 04:02:40;;;;;;;3.73;1.30;;;;;;;21.15;48.83;101126.22;5034614;28;20288;-65
2023/09/24 04:05:14;;;;;;;4.10;1.60;;;;;;;21.13;47.54;101127.22;5053022;28;20295;-65
2023/09/24 04:07:46;;;;;;;3.83;1.40;;;;;;;21.07;46.43;101118.59;5052625;28;20303;-64
2023/09/24 04:10:19;;;;;;;3.63;1.47;;;;;;;21.03;44.32;101117.00;5043416;28;20274;-61
2023/09/24 04:12:51;;;;;;;3.70;1.33;;;;;;;20.95;44.70;101119.16;5032967;28;20294;-63
2023/09/24 04:15:23;;;;;;;2.70;1.23;;;;;;;20.90;44.47;101110.53;5022850;28;20290;-61
2023/09/24 04:17:56;;;;;;;4.20;1.30;;;;;;;20.87;43.39;101116.00;5033476;28;20291;-63
2023/09/24 04:20:29;;;;;;;4.67;1.50;;;;;;;20.89;45.89;101114.13;5025415;28;20600;-63
2023/09/24 04:23:00;;;;;;;1.53;1.20;;;;;;;20.83;44.34;101111.75;5068822;28;20282;-63
2023/09/24 04:25:32;;;;;;;2.40;1.20;;;;;;;20.91;45.85;101112.25;5061572;28;20278;-63
2023/09/24 04:28:02;;;;;;;4.70;1.30;;;;;;;20.88;43.54;101117.72;5053807;28;20272;-63
2023/09/24 04:30:33;;;;;;;1.70;1.07;;;;;;;20.85;43.21;101123.19;5042059;28;20730;-61
2023/09/24 04:33:09;;;;;;;22.80;2.10;;;;;;;20.76;43.08;101120.94;5052568;28;20274;-61
2023/09/24 04:35:40;;;;;;;8.37;1.30;;;;;;;20.65;43.99;101121.41;5042192;28;20602;-63
2023/09/24 04:38:10;;;;;;;6.17;1.30;;;;;;;20.71;44.62;101122.94;5040299;28;20287;-60
2023/09/24 04:40:43;;;;;;;4.23;1.10;;;;;;;20.76;45.49;101113.81;5044021;28;20354;-62
2023/09/24 04:43:15;;;;;;;19.90;1.87;;;;;;;20.80;44.95;101120.72;5041347;28;20366;-59
2023/09/24 04:45:46;;;;;;;2.83;1.20;;;;;;;20.73;43.54;101118.41;5052671;28;20601;-61
2023/09/24 04:48:16;;;;;;;1.93;1.40;;;;;;;20.69;43.95;101122.97;5043440;28;20270;-61
2023/09/24 04:50:47;;;;;;;2.30;1.50;;;;;;;20.72;45.83;101119.31;5052984;28;20336;-62
2023/09/24 04:53:18;;;;;;;5.10;1.70;;;;;;;20.80;46.32;101127.84;5063007;28;20362;-63
2023/09/24 04:55:50;;;;;;;2.23;1.13;;;;;;;20.85;46.31;101133.81;5073644;28;20365;-63
2023/09/24 04:58:21;;;;;;;3.30;1.40;;;;;;;20.88;46.70;101133.66;5072644;28;20657;-61
2023/09/24 05:00:52;;;;;;;2.60;1.43;;;;;;;20.93;44.19;101121.03;5074730;28;20275;-62
2023/09/24 05:03:22;;;;;;;4.40;1.40;;;;;;;20.85;44.84;101134.66;5077398;28;20278;-64
2023/09/24 05:05:53;;;;;;;5.30;1.70;;;;;;;20.87;45.05;101142.56;5076997;28;20295;-63
2023/09/24 05:08:24;;;;;;;3.67;1.53;;;;;;;20.87;45.87;101122.16;5077371;28;20279;-63
2023/09/24 05:10:56;;;;;;;15.77;1.53;;;;;;;20.71;44.86;101107.84;5076986;28;20274;-60
2023/09/24 05:13:27;;;;;;;2.90;1.17;;;;;;;20.41;44.35;101086.16;5076302;28;20313;-61
2023/09/24 05:16:00;;;;;;;3.00;1.37;;;;;;;20.78;45.58;101132.34;5076491;28;20345;-63
2023/09/24 05:18:30;;;;;;;5.07;1.60;;;;;;;20.76;45.22;101134.22;5074694;28;20559;-64
2023/09/24 05:21:02;;;;;;;3.43;1.20;;;;;;;20.76;45.58;101132.41;5066560;28;20271;-66
2023/09/24 05:23:33;;;;;;;2.87;1.40;;;;;;;20.70;45.68;101129.19;5077401;28;20271;-63
2023/09/24 05:26:05;;;;;;;4.53;1.23;;;;;;;20.72;44.64;101129.94;5062155;28;20353;-61
2023/09/24 05:28:36;;;;;;;6.67;1.60;;;;;;;20.72;45.26;101128.19;5056690;28;20374;-66
2023/09/24 05:31:06;;;;;;;9.83;1.50;;;;;;;20.67;44.36;101125.72;5056415;28;20271;-63
2023/09/24 05:33:38;;;;;;;2.23;1.33;;;;;;;20.61;44.80;101118.03;5056485;28;20290;-64
2023/09/24 05:36:08;;;;;;;4.17;1.23;;;;;;;20.63;42.30;101134.75;5056285;28;20272;-61
2023/09/24 05:38:39;;;;;;;2.70;1.17;;;;;;;20.56;43.17;101129.78;5056800;28;20290;-64
2023/09/24 05:41:11;;;;;;;4.20;1.10;;;;;;;20.50;43.23;101128.25;5056646;28;20272;-63
2023/09/24 05:43:44;;;;;;;30.43;5.23;;;;;;;20.42;43.11;101130.38;5056200;28;20294;-66
2023/09/24 05:46:15;;;;;;;4.77;1.80;;;;;;;20.39;44.08;101135.78;5055957;28;20621;-64
2023/09/24 05:48:49;;;;;;;4.90;1.17;;;;;;;20.33;44.60;101133.41;5056346;28;20279;-65
2023/09/24 05:51:19;;;;;;;5.10;1.40;;;;;;;20.34;44.75;101132.47;5055994;28;20345;-67
2023/09/24 05:53:50;;;;;;;5.73;1.87;;;;;;;20.37;45.07;101135.03;5056063;28;20366;-66
2023/09/24 05:56:24;;;;;;;3.30;1.90;;;;;;;20.32;43.60;101139.63;5056530;28;20275;-65
2023/09/24 05:58:56;;;;;;;3.07;1.83;;;;;;;20.29;45.21;101131.81;5056223;28;20290;-64
2023/09/24 06:01:26;;;;;;;5.50;1.50;;;;;;;20.20;44.12;101131.28;5056107;28;20778;-64
2023/09/24 06:03:57;;;;;;;2.57;1.53;;;;;;;20.24;45.41;101127.59;5055962;28;20286;-65
2023/09/24 06:06:28;;;;;;;3.03;1.30;;;;;;;20.24;44.68;101124.94;5056068;28;20737;-64
2023/09/24 06:08:58;;;;;;;4.70;1.70;;;;;;;20.19;44.25;101129.56;5056013;28;20333;-65
2023/09/24 06:11:30;;;;;;;5.33;1.70;;;;;;;20.11;43.41;101141.41;5055689;28;20358;-66
2023/09/24 06:14:03;;;;;;;3.83;1.40;;;;;;;20.04;43.20;101132.84;5055133;28;20279;-63
2023/09/24 06:16:35;;;;;;;8.60;1.77;;;;;;;19.90;43.94;101132.59;5055786;28;20295;-63
2023/09/24 06:19:07;;;;;;;6.23;1.73;;;;;;;19.78;45.31;101113.59;5055548;28;20271;-68
2023/09/24 06:21:37;;;;;;;3.80;1.50;;;;;;;19.86;45.34;101144.22;5053703;28;20404;-64
2023/09/24 06:24:08;;;;;;;4.33;1.20;;;;;;;19.81;44.01;101145.28;5042310;28;20694;-61
2023/09/24 06:26:42;;;;;;;3.63;1.30;;;;;;;19.74;45.04;101143.78;5048461;28;20289;-64
2023/09/24 06:29:13;;;;;;;5.00;1.53;;;;;;;19.72;45.97;101150.97;5054231;28;20287;-67
2023/09/24 06:31:46;;;;;;;2.73;1.30;;;;;;;19.68;45.81;101144.06;5055129;28;20275;-66
2023/09/24 06:34:16;;;;;;;4.70;2.47;;;;;;;19.66;46.66;101150.31;5025754;28;20299;-67
2023/09/24 06:36:47;;;;;;;5.27;1.83;;;;;;;19.63;47.04;101146.00;5035777;28;20279;-67
2023/09/24 06:39:18;;;;;;;3.30;2.10;;;;;;;19.59;47.10;101149.69;5024546;28;20295;-63
2023/09/24 06:41:51;;;;;;;4.03;1.30;;;;;;;19.55;45.19;101156.06;5045089;28;20282;-61
2023/09/24 06:44:24;;;;;;;4.77;1.70;;;;;;;19.37;45.72;101145.25;5055485;28;20286;-64
2023/09/24 06:46:57;;;;;;;4.37;2.10;;;;;;;19.36;46.39;101153.25;5055577;28;20295;-66
2023/09/24 06:49:28;;;;;;;6.27;1.77;;;;;;;19.29;46.08;101151.75;5054797;28;20281;-67
2023/09/24 06:51:58;;;;;;;8.30;2.10;;;;;;;19.22;46.44;101134.34;5055223;28;20362;-63
2023/09/24 06:54:29;;;;;;;5.20;2.30;;;;;;;19.20;47.29;101146.81;5054877;28;20746;-63
2023/09/24 06:57:01;;;;;;;8.20;2.93;;;;;;;19.14;47.89;101142.59;5054931;28;20371;-66
2023/09/24 06:59:32;;;;;;;6.77;2.03;;;;;;;19.11;48.22;101137.44;5055447;28;20716;-68
2023/09/24 07:02:02;;;;;;;9.23;2.00;;;;;;;19.06;48.48;101144.69;5054628;28;20367;-64
2023/09/24 07:04:33;;;;;;;3.73;1.87;;;;;;;18.99;49.54;101143.19;5054594;28;20358;-63
2023/09/24 07:07:04;;;;;;;5.23;2.70;;;;;;;18.92;49.19;101154.03;5054685;28;20374;-63
2023/09/24 07:09:34;;;;;;;8.77;2.70;;;;;;;18.84;48.14;101156.06;5054717;28;20329;-63
2023/09/24 07:12:10;;;;;;;10.07;3.43;;;;;;;18.75;49.37;101156.38;5054304;28;20322;-65
2023/09/24 07:14:41;;;;;;;4.47;2.50;;;;;;;18.62;48.06;101149.78;5054923;28;20287;-65
2023/09/24 07:17:11;;;;;;;3.77;2.80;;;;;;;18.51;48.38;101156.31;5054843;28;20287;-64
2023/09/24 07:19:42;;;;;;;8.17;2.30;;;;;;;18.40;48.44;101155.84;5054217;28;20803;-65
2023/09/24 07:22:13;;;;;;;7.10;2.27;;;;;;;18.31;48.44;101156.16;5073191;28;20282;-64
2023/09/24 07:24:43;;;;;;;9.57;2.63;;;;;;;18.26;49.51;101163.38;5073691;28;20271;-63
2023/09/24 07:27:15;;;;;;;9.37;2.57;;;;;;;18.14;49.83;101156.72;5074214;28;20787;-66
2023/09/24 07:29:46;;;;;;;8.70;2.70;;;;;;;18.09;50.27;101167.44;5074088;28;20281;-67
2023/09/24 07:32:17;;;;;;;4.30;2.60;;;;;;;17.98;50.26;101164.31;5073919;28;20287;-67
2023/09/24 07:34:47;;;;;;;5.57;2.50;;;;;;;17.89;50.68;101169.88;5074023;28;20282;-65
2023/09/24 07:37:18;;;;;;;5.07;1.90;;;;;;;17.77;50.53;101170.25;5073754;28;20366;-65
2023/09/24 07:39:49;;;;;;;4.57;2.70;;;;;;;17.68;51.99;101177.56;5069929;28;20270;-65
2023/09/24 07:42:21;;;;;;;5.57;2.57;;;;;;;17.56;51.63;101182.38;5050117;28;20275;-65
2023/09/24 07:44:52;;;;;;;7.17;3.80;;;;;;;17.41;52.47;101173.13;5072937;28;20381;-65
2023/09/24 07:47:23;;;;;;;9.97;5.90;;;;;;;17.29;55.21;101178.78;5062256;28;20759;-65
2023/09/24 07:49:53;;;;;;;12.87;5.30;;;;;;;17.22;56.70;101178.06;5067860;28;20471;-65
2023/09/24 07:52:24;;;;;;;11.63;4.57;;;;;;;17.07;58.24;101179.38;5027496;28;20282;-62
2023/09/24 07:54:54;;;;;;;12.13;4.00;;;;;;;17.00;59.59;101172.56;5034841;28;20345;-64
2023/09/24 07:57:26;;;;;;;12.63;4.00;;;;;;;16.89;60.20;101174.63;5038108;28;20485;-62
2023/09/24 07:59:57;;;;;;;9.90;2.90;;;;;;;16.84;62.07;101181.81;5050452;28;20290;-63
2023/09/24 08:02:28;;;;;;;7.67;3.03;;;;;;;16.70;63.05;101180.41;5036948;28;20277;-62
2023/09/24 08:04:58;;;;;;;6.93;2.40;;;;;;;16.54;63.54;101179.06;5038944;28;20302;-66
2023/09/24 08:07:30;;;;;;;4.47;2.30;;;;;;;16.37;64.21;101175.13;5026790;28;20277;-66
2023/09/24 08:10:00;;;;;;;7.33;2.77;;;;;;;16.21;64.71;101170.28;5037869;28;20808;-61
2023/09/24 08:12:33;;;;;;;8.87;2.70;;;;;;;16.07;66.35;101170.59;5036777;28;20679;-65
2023/09/24 08:15:04;;;;;;;10.03;3.30;;;;;;;15.96;68.49;101177.00;5039249;28;20290;-61
2023/09/24 08:17:36;;;;;;;5.00;2.17;;;;;;;15.83;70.22;101170.31;5031935;28;20603;-63
2023/09/24 08:20:08;;;;;;;7.47;2.63;;;;;;;15.57;71.43;101177.91;5026763;28;20291;-65
2023/09/24 08:22:42;;;;;;;11.07;7.13;;;;;;;15.27;72.26;101185.56;5041558;28;20598;-61
2023/09/24 08:25:13;;;;;;;12.53;6.97;;;;;;;15.06;73.68;101187.75;5027373;28;20275;-65
2023/09/24 08:27:45;;;;;;;6.23;2.40;;;;;;;14.80;75.30;101184.75;5035802;28;20579;-62
2023/09/24 08:30:18;;;;;;;3.80;1.67;;;;;;;14.48;77.54;101191.44;5036245;28;20278;-66
2023/09/24 08:32:48;;;;;;;6.50;2.07;;;;;;;14.15;80.18;101191.13;5035055;28;20291;-66
2023/09/24 08:35:19;;;;;;;9.07;2.07;;;;;;;13.86;82.77;101182.84;5031454;28;20290;-62
2023/09/24 08:37:49;;;;;;;5.03;1.80;;;;;;;13.61;84.97;101192.84;5046060;28;20605;-63
2023/09/24 08:40:20;;;;;;;7.20;2.70;;;;;;;13.35;87.02;101183.53;5039467;28;20267;-63
2023/09/24 08:42:52;;;;;;;11.50;2.27;;;;;;;13.29;88.52;101197.63;5041078;28;20281;-62
2023/09/24 08:45:26;;;;;;;6.60;3.80;;;;;;;13.19;88.97;101195.97;5034339;28;20299;-64
2023/09/24 08:47:57;;;;;;;10.13;5.50;;;;;;;13.15;89.02;101204.75;5047230;28;20680;-64
2023/09/24 08:50:28;;;;;;;7.93;4.53;;;;;;;13.05;88.75;101203.13;5030829;28;20306;-66
2023/09/24 08:52:59;;;;;;;7.93;4.15;;;;;;;12.92;89.24;101208.50;5034879;28;20374;-65
2023/09/24 08:55:30;;;;;;;8.10;3.33;;;;;;;12.84;89.86;101205.09;5029549;28;20131;-65
2023/09/24 08:58:02;;;;;;;9.95;3.00;;;;;;;12.75;90.52;101205.19;5035488;28;20049;-67
2023/09/24 09:00:39;;;;;;;9.57;2.67;;;;;;;12.66;90.87;101221.91;5033947;28;20142;-66
2023/09/24 09:07:13;;;;;;;9.82;3.25;;;;;;;12.44;91.92;101215.97;4964551;28;20368;-64
2023/09/24 09:10:10;;;;;;;8.77;2.55;;;;;;;12.28;91.53;101222.22;5014145;28;20550;-61
2023/09/24 09:12:50;;;;;;;4.57;2.22;;;;;;;12.11;92.08;101224.13;5003467;28;20056;-67
2023/09/24 09:16:02;;;;;;;17.90;8.23;;;;;;;11.84;92.44;101210.31;5003384;28;20136;-65
2023/09/24 09:18:35;;;;;;;45.38;29.75;;;;;;;11.81;93.20;101216.44;5002751;28;20037;-60
2023/09/24 09:24:22;;;;;;;29.92;19.30;;;;;;;11.77;93.67;101226.94;5003933;28;20364;-67
2023/09/24 09:27:11;;;;;;;22.42;14.80;;;;;;;11.78;93.34;101233.88;5015919;28;20535;-65
2023/09/24 09:29:44;;;;;;;18.70;10.75;;;;;;;11.83;93.05;101232.13;5004128;28;20348;-67
2023/09/24 09:32:20;;;;;;;27.67;15.40;;;;;;;11.42;92.24;101160.81;5003611;28;20049;-67
2023/09/24 09:35:18;;;;;;;;;;;;;;;11.91;91.83;101240.84;5014174;28;20523;-67
2023/09/24 09:38:20;;;;;;;15.45;9.55;;;;;;;11.92;90.90;101247.81;4968284;28;19936;-67
2023/09/24 09:41:11;;;;;;;13.60;7.25;;;;;;;11.98;90.13;101253.03;4972090;28;20417;-67
2023/09/24 09:43:45;;;;;;;11.55;5.72;;;;;;;12.11;89.95;101264.28;4961511;28;20050;-67
2023/09/24 09:46:20;;;;;;;10.02;3.55;;;;;;;12.00;89.82;101251.25;4960638;28;20117;-67
2023/09/24 09:48:57;;;;;;;14.75;3.80;;;;;;;11.83;90.07;101226.88;4971628;28;20057;-62
2023/09/24 09:51:28;;;;;;;19.85;5.80;;;;;;;11.95;90.26;101255.66;4961289;28;20050;-66
2023/09/24 09:54:08;;;;;;;7.57;4.40;;;;;;;11.89;90.42;101262.69;4971079;28;20101;-66
2023/09/24 09:56:39;;;;;;;9.25;4.00;;;;;;;11.73;91.08;101273.22;4960247;28;20046;-63
2023/09/24 09:59:38;;;;;;;14.80;5.80;;;;;;;11.63;91.95;101269.78;4961721;28;20041;-66
2023/09/24 10:02:31;;;;;;;12.07;5.40;;;;;;;11.58;93.36;101278.50;4946443;28;20051;-66
2023/09/24 10:05:08;;;;;;;15.52;4.40;;;;;;;11.50;94.06;101275.06;4974632;28;20056;-63
2023/09/24 10:07:40;;;;;;;14.85;3.97;;;;;;;11.40;94.55;101274.22;5009986;28;20036;-68
2023/09/24 10:10:42;;;;;;;13.48;4.88;;;;;;;11.32;94.98;101265.53;5010700;28;20096;-68
2023/09/24 10:13:48;;;;;;;11.63;3.63;;;;;;;11.21;94.92;101268.19;5011031;28;20053;-67
2023/09/24 10:16:37;;;;;;;15.07;6.30;;;;;;;11.09;95.42;101269.09;5007429;28;20041;-67
2023/09/24 10:19:11;;;;;;;11.70;6.00;;;;;;;11.04;95.42;101281.31;5010219;28;20048;-65
2023/09/24 10:21:45;;;;;;;18.42;6.30;;;;;;;10.48;95.56;101199.47;5024283;28;20067;-64
2023/09/24 10:24:50;;;;;;;15.68;4.00;;;;;;;10.93;96.16;101280.44;5011887;28;20052;-66
2023/09/24 10:27:27;;;;;;;21.42;5.35;;;;;;;10.92;96.10;101286.56;5014131;28;20045;-67
2023/09/24 10:30:01;;;;;;;17.88;5.75;;;;;;;10.93;95.89;101288.28;5029919;28;20109;-67
2023/09/24 10:32:46;;;;;;;24.95;5.78;;;;;;;10.75;95.67;101253.44;5013881;28;20139;-63
2023/09/24 10:35:18;;;;;;;10.77;4.80;;;;;;;10.79;95.63;101281.34;5011359;28;20053;-63
2023/09/24 10:38:08;;;;;;;9.85;4.68;;;;;;;10.73;96.03;101280.47;5025294;28;20058;-66
2023/09/24 10:41:07;;;;;;;11.85;4.18;;;;;;;10.62;96.75;101277.84;5013080;28;20044;-65
2023/09/24 10:43:38;;;;;;;;;;;;;;;10.57;96.95;101279.59;5014759;28;20392;-66
2023/09/24 10:46:30;;;;;;;12.95;3.80;;;;;;;10.53;97.49;101273.53;5012682;28;20037;-66
2023/09/24 10:49:03;;;;;;;14.63;4.18;;;;;;;10.48;97.70;101279.59;5020430;28;20138;-67
2023/09/24 10:51:36;;;;;;;16.50;4.00;;;;;;;10.20;97.67;101232.53;5009353;28;20132;-64
2023/09/24 10:54:16;;;;;;;8.30;3.80;;;;;;;9.82;98.14;101175.91;5011271;28;20037;-67
2023/09/24 10:56:48;;;;;;;5.75;2.97;;;;;;;10.41;98.25;101283.06;5029348;28;20044;-68
2023/09/24 10:59:34;;;;;;;13.23;3.50;;;;;;;10.21;98.72;101265.63;5012701;28;20053;-65
2023/09/24 11:02:18;;;;;;;11.27;2.75;;;;;;;10.27;98.85;101281.28;5024736;28;20053;-65
2023/09/24 11:04:51;;;;;;;7.40;2.58;;;;;;;10.19;99.29;101288.25;5018067;28;20053;-66
2023/09/24 11:07:24;;;;;;;13.98;2.90;;;;;;;10.11;99.76;101284.78;5009597;28;20111;-64
2023/09/24 11:09:58;;;;;;;7.93;2.60;;;;;;;10.12;100.00;101292.59;5020134;28;20045;-64
2023/09/24 11:12:30;;;;;;;6.57;3.22;;;;;;;10.11;100.00;101295.22;5010445;28;20061;-67
2023/09/24 11:15:02;;;;;;;9.25;2.80;;;;;;;9.42;100.00;101178.44;5020363;28;20033;-67
2023/09/24 11:17:47;;;;;;;10.40;3.47;;;;;;;10.12;99.59;101296.94;5010798;28;20040;-68
2023/09/24 11:20:21;;;;;;;7.75;2.83;;;;;;;10.12;99.48;101296.94;5009782;28;20057;-66
2023/09/24 11:23:03;;;;;;;7.60;2.67;;;;;;;10.17;99.21;101291.75;5021038;28;20036;-67
2023/09/24 11:25:36;;;;;;;9.07;3.20;;;;;;;10.09;99.03;101286.50;5009301;28;20055;-62
2023/09/24 11:28:08;;;;;;;7.30;2.58;;;;;;;10.11;99.38;101295.22;5009021;28;20039;-67
2023/09/24 11:30:43;;;;;;;5.32;2.55;;;;;;;10.10;99.54;101306.50;5020355;28;20068;-65
2023/09/24 11:33:18;;;;;;;7.82;2.65;;;;;;;10.05;99.69;101295.19;5008352;28;20036;-65
2023/09/24 11:35:50;;;;;;;7.63;2.30;;;;;;;9.98;99.52;101298.66;5019110;28;20052;-64
2023/09/24 11:38:32;;;;;;;6.07;2.20;;;;;;;9.73;99.71;101272.47;5010335;28;20063;-67
2023/09/24 11:41:13;;;;;;;6.28;2.90;;;;;;;9.89;99.94;101305.59;5017803;28;20114;-66
2023/09/24 11:43:45;;;;;;;7.43;2.50;;;;;;;9.85;99.96;101309.06;5008507;28;20438;-64
2023/09/24 11:46:21;;;;;;;8.23;2.40;;;;;;;9.78;100.00;101302.06;5009496;28;20132;-65
2023/09/24 11:48:55;;;;;;;4.28;2.38;;;;;;;9.79;100.00;101303.81;5020962;28;20037;-66
2023/09/24 11:51:27;;;;;;;5.13;2.08;;;;;;;9.83;100.00;101305.56;5007827;28;20089;-64
2023/09/24 11:53:59;;;;;;;5.82;2.47;;;;;;;9.85;100.00;101303.81;5017560;28;20143;-66
2023/09/24 11:56:33;;;;;;;6.90;2.35;;;;;;;9.64;100.00;101278.53;5010099;28;20464;-66
2023/09/24 11:59:05;;;;;;;6.47;2.38;;;;;;;9.73;100.00;101293.34;5020453;28;20531;-65